createdAt,value
2023-02-16T00:00:51.359Z,99819.91
2023-02-16T00:03:22.486Z,99818.38
2023-02-16T00:05:50.412Z,99815.97
2023-02-16T00:08:17.303Z,99816.41
2023-02-16T00:11:06.503Z,99812.41
2023-02-16T00:13:45.140Z,99818.00
2023-02-16T00:16:21.698Z,99812.78
2023-02-16T00:18:48.932Z,99807.28
2023-02-16T00:21:16.123Z,99804.31
2023-02-16T00:23:43.210Z,99803.16
2023-02-16T00:26:23.218Z,99804.19
2023-02-16T00:28:52.568Z,99802.38
2023-02-16T00:31:23.514Z,99804.88
2023-02-16T00:33:50.610Z,99808.63
2023-02-16T00:36:17.291Z,99796.75
2023-02-16T00:38:44.514Z,99792.28
2023-02-16T00:41:40.077Z,99787.94
2023-02-16T00:44:22.006Z,99785.03
2023-02-16T00:46:48.732Z,99778.59
2023-02-16T00:49:18.847Z,99775.59
2023-02-16T00:51:45.530Z,99781.25
2023-02-16T00:54:12.449Z,99782.13
2023-02-16T00:56:40.052Z,99777.38
2023-02-16T00:59:15.894Z,99786.03
2023-02-16T01:01:42.866Z,99782.41
2023-02-16T01:04:21.643Z,99769.91
2023-02-16T01:07:07.496Z,99782.63
2023-02-16T01:09:52.627Z,99786.63
2023-02-16T01:12:21.272Z,99786.03
2023-02-16T01:14:53.562Z,99785.59
2023-02-16T01:17:20.601Z,99793.03
2023-02-16T01:19:50.700Z,99797.22
2023-02-16T01:22:17.998Z,99798.75
2023-02-16T01:24:44.685Z,99796.75
2023-02-16T01:27:13.542Z,99787.03
2023-02-16T01:29:40.209Z,99791.06
2023-02-16T01:32:06.897Z,99782.63
2023-02-16T01:34:33.591Z,99779.09
2023-02-16T01:37:00.228Z,99774.72
2023-02-16T01:39:26.841Z,99776.81
2023-02-16T01:42:47.948Z,99781.84
2023-02-16T01:45:22.266Z,99766.03
2023-02-16T01:47:56.519Z,99765.31
2023-02-16T01:50:43.260Z,99761.13
2023-02-16T01:53:26.140Z,99771.34
2023-02-16T01:55:59.238Z,99758.50
2023-02-16T01:58:48.302Z,99768.34
2023-02-16T02:01:38.037Z,99757.34
2023-02-16T02:04:55.372Z,99749.44
2023-02-16T02:07:52.451Z,99748.88
2023-02-16T02:10:55.912Z,99764.16
2023-02-16T02:14:07.466Z,99750.66
2023-02-16T02:16:34.106Z,99752.22
2023-02-16T02:19:00.891Z,99754.19
2023-02-16T02:22:47.180Z,99748.25
2023-02-16T02:25:54.959Z,99735.88
2023-02-16T02:28:45.391Z,99744.19
2023-02-16T02:31:34.461Z,99738.03
2023-02-16T02:34:29.636Z,99735.84
2023-02-16T02:37:20.328Z,99729.31
2023-02-16T02:40:16.144Z,99733.91
2023-02-16T02:43:08.138Z,99718.69
2023-02-16T02:45:42.437Z,99711.44
2023-02-16T02:48:13.024Z,99717.16
2023-02-16T02:51:15.981Z,99721.56
2023-02-16T02:54:14.998Z,99727.69
2023-02-16T02:57:27.585Z,99719.84
2023-02-16T03:00:41.626Z,99724.88
2023-02-16T03:03:22.033Z,99724.63
2023-02-16T03:05:54.833Z,99721.91
2023-02-16T03:08:25.809Z,99720.34
2023-02-16T03:11:17.905Z,99727.47
2023-02-16T03:14:01.409Z,99727.56
2023-02-16T03:16:37.635Z,99727.59
2023-02-16T03:19:27.499Z,99727.88
2023-02-16T03:22:14.224Z,99733.28
2023-02-16T03:25:00.429Z,99725.72
2023-02-16T03:27:59.563Z,99720.44
2023-02-16T03:30:27.349Z,99714.69
2023-02-16T03:32:54.705Z,99717.38
2023-02-16T03:35:21.820Z,99724.63
2023-02-16T03:37:48.613Z,99718.59
2023-02-16T03:40:29.867Z,99725.25
2023-02-16T03:43:00.040Z,99714.66
2023-02-16T03:45:27.530Z,99720.06
2023-02-16T03:47:54.908Z,99719.50
2023-02-16T03:50:21.991Z,99721.56
2023-02-16T03:52:49.070Z,99722.41
2023-02-16T03:55:17.948Z,99726.81
2023-02-16T03:57:44.773Z,99734.69
2023-02-16T04:00:12.163Z,99743.22
2023-02-16T04:02:42.617Z,99731.41
2023-02-16T04:05:09.194Z,99732.53
2023-02-16T04:07:39.140Z,99733.16
2023-02-16T04:10:06.576Z,99728.78
2023-02-16T04:12:36.102Z,99725.63
2023-02-16T04:15:18.484Z,99724.88
2023-02-16T04:17:50.249Z,99718.91
2023-02-16T04:20:20.770Z,99719.41
2023-02-16T04:22:48.210Z,99717.28
2023-02-16T04:25:15.858Z,99719.47
2023-02-16T04:27:43.241Z,99731.25
2023-02-16T04:30:15.041Z,99733.22
2023-02-16T04:32:41.728Z,99724.84
2023-02-16T04:35:09.158Z,99718.78
2023-02-16T04:37:35.918Z,99721.22
2023-02-16T04:40:04.071Z,99725.03
2023-02-16T04:42:31.110Z,99728.88
2023-02-16T04:44:57.746Z,99732.59
2023-02-16T04:47:26.536Z,99732.38
2023-02-16T04:49:53.724Z,99733.38
2023-02-16T04:52:25.039Z,99738.31
2023-02-16T04:54:51.662Z,99738.50
2023-02-16T04:57:21.201Z,99723.72
2023-02-16T04:59:47.844Z,99731.25
2023-02-16T05:02:14.441Z,99730.91
2023-02-16T05:04:42.102Z,99725.66
2023-02-16T05:07:08.797Z,99729.03
2023-02-16T05:09:35.498Z,99715.03
2023-02-16T05:12:20.872Z,99717.09
2023-02-16T05:14:47.693Z,99729.59
2023-02-16T05:17:24.091Z,99733.72
2023-02-16T05:19:59.170Z,99727.50
2023-02-16T05:22:28.494Z,99732.94
2023-02-16T05:24:55.099Z,99723.59
2023-02-16T05:27:24.797Z,99727.78
2023-02-16T05:29:51.960Z,99733.00
2023-02-16T05:32:19.125Z,99723.94
2023-02-16T05:34:46.049Z,99734.63
2023-02-16T05:37:15.279Z,99731.97
2023-02-16T05:39:42.128Z,99739.38
2023-02-16T05:42:09.123Z,99746.19
2023-02-16T05:44:36.768Z,99739.06
2023-02-16T05:47:03.964Z,99744.44
2023-02-16T05:49:30.777Z,99741.00
2023-02-16T05:51:57.459Z,99743.13
2023-02-16T05:54:27.728Z,99740.59
2023-02-16T05:56:54.651Z,99737.28
2023-02-16T05:59:21.330Z,99741.13
2023-02-16T06:01:51.655Z,99740.91
2023-02-16T06:04:21.763Z,99744.16
2023-02-16T06:06:48.689Z,99740.56
2023-02-16T06:09:15.644Z,99752.06
2023-02-16T06:11:42.617Z,99748.13
2023-02-16T06:14:13.024Z,99750.78
2023-02-16T06:16:44.529Z,99757.50
2023-02-16T06:19:12.180Z,99763.16
2023-02-16T06:21:39.977Z,99769.78
2023-02-16T06:24:11.517Z,99778.44
2023-02-16T06:26:38.621Z,99768.66
2023-02-16T06:29:06.218Z,99775.19
2023-02-16T06:31:36.106Z,99770.56
2023-02-16T06:34:03.628Z,99773.94
2023-02-16T06:36:30.407Z,99769.78
2023-02-16T06:38:57.099Z,99770.13
2023-02-16T06:41:35.614Z,99761.53
2023-02-16T06:44:05.709Z,99768.59
2023-02-16T06:46:33.019Z,99782.34
2023-02-16T06:49:00.518Z,99756.78
2023-02-16T06:51:27.355Z,99763.16
2023-02-16T06:53:54.064Z,99769.16
2023-02-16T06:56:20.848Z,99762.78
2023-02-16T06:58:48.344Z,99763.63
2023-02-16T07:01:15.319Z,99763.28
2023-02-16T07:03:42.062Z,99762.88
2023-02-16T07:06:08.788Z,99770.81
2023-02-16T07:08:35.903Z,99767.97
2023-02-16T07:11:03.595Z,99762.72
2023-02-16T07:13:30.370Z,99764.84
2023-02-16T07:15:57.043Z,99771.91
2023-02-16T07:18:23.718Z,99768.72
2023-02-16T07:20:50.320Z,99764.00
2023-02-16T07:23:16.905Z,99771.16
2023-02-16T07:25:43.470Z,99763.72
2023-02-16T07:28:10.103Z,99764.69
2023-02-16T07:30:37.822Z,99770.47
2023-02-16T07:33:06.508Z,99774.00
2023-02-16T07:35:34.422Z,99779.06
2023-02-16T07:38:01.275Z,99777.56
2023-02-16T07:40:28.015Z,99788.56
2023-02-16T07:42:54.925Z,99785.16
2023-02-16T07:45:21.631Z,99789.97
2023-02-16T07:47:48.204Z,99790.19
2023-02-16T07:50:14.865Z,99788.97
2023-02-16T07:52:41.499Z,99788.47
2023-02-16T07:55:08.613Z,99776.50
2023-02-16T07:57:35.357Z,99776.28
2023-02-16T08:00:03.222Z,99779.22
2023-02-16T08:02:29.946Z,99782.78
2023-02-16T08:04:56.816Z,99788.88
2023-02-16T08:07:23.433Z,99788.44
2023-02-16T08:09:54.882Z,99787.81
2023-02-16T08:12:24.538Z,99786.16
2023-02-16T08:14:51.218Z,99778.84
2023-02-16T08:17:17.886Z,99784.41
2023-02-16T08:19:44.465Z,99783.09
2023-02-16T08:22:12.146Z,99782.63
2023-02-16T08:24:38.731Z,99786.84
2023-02-16T08:27:06.223Z,99790.13
2023-02-16T08:29:33.295Z,99784.81
2023-02-16T08:32:01.193Z,99788.28
2023-02-16T08:34:28.080Z,99787.28
2023-02-16T08:36:57.333Z,99781.22
2023-02-16T08:39:28.434Z,99778.72
2023-02-16T08:42:01.581Z,99783.28
2023-02-16T08:44:30.099Z,99784.69
2023-02-16T08:47:00.771Z,99787.09
2023-02-16T08:49:27.743Z,99784.06
2023-02-16T08:51:58.524Z,99789.78
2023-02-16T08:54:30.444Z,99790.03
2023-02-16T08:56:58.828Z,99796.41
2023-02-16T08:59:28.435Z,99794.59
2023-02-16T09:01:58.015Z,99789.72
2023-02-16T09:04:25.514Z,99791.28
2023-02-16T09:06:53.277Z,99798.41
2023-02-16T09:09:20.158Z,99802.25
2023-02-16T09:11:47.954Z,99802.03
2023-02-16T09:14:18.934Z,99804.56
2023-02-16T09:16:46.369Z,99812.50
2023-02-16T09:19:16.192Z,99805.06
2023-02-16T09:21:45.228Z,99807.84
2023-02-16T09:24:11.968Z,99800.22
2023-02-16T09:26:42.764Z,99807.19
2023-02-16T09:29:12.347Z,99806.25
2023-02-16T09:31:39.566Z,99815.03
2023-02-16T09:34:21.844Z,99803.28
2023-02-16T09:36:49.738Z,99808.56
2023-02-16T09:39:17.134Z,99811.88
2023-02-16T09:42:11.339Z,99814.22
2023-02-16T09:45:16.783Z,99822.44
2023-02-16T09:47:47.312Z,99823.41
2023-02-16T09:50:52.612Z,99829.44
2023-02-16T09:53:45.158Z,99825.34
2023-02-16T09:56:32.936Z,99821.19
2023-02-16T09:59:10.762Z,99822.25
2023-02-16T10:02:15.867Z,99822.19
2023-02-16T10:05:17.723Z,99818.03
2023-02-16T10:08:09.192Z,99809.53
2023-02-16T10:10:56.148Z,99813.97
2023-02-16T10:13:36.421Z,99818.81
2023-02-16T10:16:07.124Z,99822.06
2023-02-16T10:18:49.169Z,99822.38
2023-02-16T10:21:23.938Z,99817.88
2023-02-16T10:24:02.223Z,99817.09
2023-02-16T10:26:35.129Z,99822.94
2023-02-16T10:29:19.779Z,99820.69
2023-02-16T10:32:30.413Z,99813.97
2023-02-16T10:35:21.395Z,99802.47
2023-02-16T10:38:24.316Z,99797.16
2023-02-16T10:41:01.654Z,99802.53
2023-02-16T10:43:42.421Z,99791.31
2023-02-16T10:46:16.751Z,99792.75
2023-02-16T10:48:44.729Z,99792.63
2023-02-16T10:51:16.567Z,99790.91
2023-02-16T10:54:07.554Z,99795.50
2023-02-16T10:56:59.480Z,99784.81
2023-02-16T10:59:38.635Z,99779.97
2023-02-16T11:02:26.513Z,99777.69
2023-02-16T11:04:57.658Z,99776.91
2023-02-16T11:07:28.371Z,99779.22
2023-02-16T11:09:58.610Z,99774.59
2023-02-16T11:12:36.623Z,99764.91
2023-02-16T11:15:18.720Z,99763.75
2023-02-16T11:18:07.938Z,99764.53
2023-02-16T11:20:57.192Z,99765.84
2023-02-16T11:23:33.428Z,99753.28
2023-02-16T11:26:24.126Z,99757.94
2023-02-16T11:28:52.602Z,99757.94
2023-02-16T11:31:41.783Z,99749.13
2023-02-16T11:34:22.329Z,99741.88
2023-02-16T11:36:49.176Z,99735.72
2023-02-16T11:39:23.248Z,99734.97
2023-02-16T11:41:54.060Z,99742.81
2023-02-16T11:44:55.443Z,99744.84
2023-02-16T11:47:31.282Z,99747.75
2023-02-16T11:50:29.164Z,99749.81
2023-02-16T11:53:15.101Z,99743.75
2023-02-16T11:55:45.935Z,99735.53
2023-02-16T11:58:29.088Z,99732.22
2023-02-16T12:01:21.138Z,99734.53
2023-02-16T12:03:53.578Z,99739.22
2023-02-16T12:06:40.737Z,99732.25
2023-02-16T12:09:41.319Z,99732.59
2023-02-16T12:12:36.249Z,99720.16
2023-02-16T12:15:15.132Z,99721.09
2023-02-16T12:18:38.920Z,99721.22
2023-02-16T12:21:40.656Z,99703.84
2023-02-16T12:24:41.474Z,99705.28
2023-02-16T12:27:28.664Z,99708.22
2023-02-16T12:30:19.815Z,99706.00
2023-02-16T12:33:20.876Z,99705.16
2023-02-16T12:36:21.584Z,99706.22
2023-02-16T12:39:03.318Z,99701.19
2023-02-16T12:41:55.871Z,99706.13
2023-02-16T12:45:01.236Z,99698.78
2023-02-16T12:47:58.492Z,99700.47
2023-02-16T12:50:31.362Z,99694.88
2023-02-16T12:53:12.099Z,99688.63
2023-02-16T12:55:48.877Z,99689.69
2023-02-16T12:58:25.659Z,99686.38
2023-02-16T13:00:58.544Z,99683.41
2023-02-16T13:03:39.286Z,99673.91
2023-02-16T13:06:22.669Z,99666.56
2023-02-16T13:09:29.390Z,99666.47
2023-02-16T13:12:12.386Z,99664.59
2023-02-16T13:14:44.099Z,99657.41
2023-02-16T13:17:23.386Z,99658.94
2023-02-16T13:19:52.795Z,99652.44
2023-02-16T13:23:05.566Z,99646.25
2023-02-16T13:25:57.825Z,99632.94
2023-02-16T13:29:14.569Z,99632.84
2023-02-16T13:32:34.713Z,99632.97
2023-02-16T13:35:34.541Z,99635.19
2023-02-16T13:38:20.138Z,99627.22
2023-02-16T13:41:32.580Z,99626.03
2023-02-16T13:44:10.626Z,99633.56
2023-02-16T13:46:48.449Z,99627.44
2023-02-16T13:49:43.093Z,99623.34
2023-02-16T13:52:37.004Z,99618.44
2023-02-16T13:55:08.524Z,99622.28
2023-02-16T13:57:51.171Z,99621.53
2023-02-16T14:00:36.849Z,99618.44
2023-02-16T14:03:19.966Z,99615.75
2023-02-16T14:05:52.912Z,99620.38
2023-02-16T14:08:30.791Z,99619.78
2023-02-16T14:11:05.532Z,99611.28
2023-02-16T14:13:45.108Z,99603.63
2023-02-16T14:16:17.609Z,99602.03
2023-02-16T14:18:56.270Z,99602.78
2023-02-16T14:21:43.832Z,99600.53
2023-02-16T14:24:32.578Z,99594.31
2023-02-16T14:27:00.931Z,99595.59
2023-02-16T14:29:40.631Z,99592.47
2023-02-16T14:32:38.338Z,99599.63
2023-02-16T14:35:28.644Z,99603.03
2023-02-16T14:38:01.906Z,99599.50
2023-02-16T14:40:51.597Z,99602.59
2023-02-16T14:43:33.457Z,99604.47
2023-02-16T14:46:53.442Z,99593.66
2023-02-16T14:49:41.163Z,99602.09
2023-02-16T14:52:57.814Z,99597.56
2023-02-16T14:56:11.461Z,99598.09
2023-02-16T14:59:05.367Z,99607.72
2023-02-16T15:01:42.598Z,99591.72
2023-02-16T15:04:11.307Z,99599.38
2023-02-16T15:06:43.840Z,99603.47
2023-02-16T15:09:29.082Z,99603.28
2023-02-16T15:12:18.458Z,99596.34
2023-02-16T15:15:02.586Z,99596.72
2023-02-16T15:17:35.430Z,99592.69
2023-02-16T15:20:25.298Z,99599.22
2023-02-16T15:23:01.076Z,99597.09
2023-02-16T15:25:33.771Z,99587.34
2023-02-16T15:28:11.165Z,99585.53
2023-02-16T15:30:41.834Z,99590.38
2023-02-16T15:33:29.053Z,99588.03
2023-02-16T15:36:13.282Z,99589.78
2023-02-16T15:38:56.912Z,99581.88
2023-02-16T15:41:33.918Z,99582.13
2023-02-16T15:44:02.649Z,99578.75
2023-02-16T15:46:38.093Z,99574.50
2023-02-16T15:49:30.225Z,99567.63
2023-02-16T15:51:57.678Z,99566.66
2023-02-16T15:54:31.837Z,99555.88
2023-02-16T15:57:01.500Z,99551.75
2023-02-16T15:59:52.799Z,99549.31
2023-02-16T16:02:48.299Z,99537.91
2023-02-16T16:05:36.226Z,99533.97
2023-02-16T16:08:03.973Z,99538.44
2023-02-16T16:10:32.712Z,99529.69
2023-02-16T16:13:03.711Z,99528.94
2023-02-16T16:15:35.799Z,99523.31
2023-02-16T16:18:05.169Z,99526.72
2023-02-16T16:20:44.386Z,99526.28
2023-02-16T16:23:16.948Z,99526.06
2023-02-16T16:25:47.370Z,99523.00
2023-02-16T16:28:35.032Z,99522.84
2023-02-16T16:31:17.016Z,99524.97
2023-02-16T16:33:58.612Z,99517.13
2023-02-16T16:36:35.547Z,99531.09
2023-02-16T16:39:18.707Z,99529.41
2023-02-16T16:42:15.935Z,99533.84
2023-02-16T16:44:54.188Z,99534.31
2023-02-16T16:47:40.262Z,99522.97
2023-02-16T16:50:09.953Z,99521.44
2023-02-16T16:52:47.049Z,99521.44
2023-02-16T16:55:33.706Z,99524.72
2023-02-16T16:58:05.206Z,99524.47
2023-02-16T17:00:39.616Z,99524.72
2023-02-16T17:03:08.801Z,99522.16
2023-02-16T17:05:38.134Z,99527.78
2023-02-16T17:08:04.794Z,99516.34
2023-02-16T17:10:31.592Z,99512.09
2023-02-16T17:12:59.719Z,99511.31
2023-02-16T17:15:50.784Z,99517.22
2023-02-16T17:18:19.802Z,99523.19
2023-02-16T17:20:47.564Z,99525.81
2023-02-16T17:23:17.082Z,99515.22
2023-02-16T17:25:47.730Z,99517.53
2023-02-16T17:28:16.840Z,99516.31
2023-02-16T17:30:43.984Z,99520.25
2023-02-16T17:33:11.263Z,99530.78
2023-02-16T17:35:41.194Z,99535.44
2023-02-16T17:38:17.991Z,99541.03
2023-02-16T17:40:48.497Z,99547.84
2023-02-16T17:43:16.601Z,99550.19
2023-02-16T17:45:44.357Z,99541.53
2023-02-16T17:48:25.703Z,99553.28
2023-02-16T17:50:53.295Z,99549.19
2023-02-16T17:53:23.739Z,99551.63
2023-02-16T17:55:53.790Z,99545.03
2023-02-16T17:58:22.375Z,99549.91
2023-02-16T18:00:49.127Z,99554.84
2023-02-16T18:03:16.032Z,99547.31
2023-02-16T18:05:42.679Z,99550.00
2023-02-16T18:08:12.556Z,99537.94
2023-02-16T18:10:52.014Z,99544.56
2023-02-16T18:13:19.324Z,99544.09
2023-02-16T18:15:49.106Z,99539.69
2023-02-16T18:18:18.387Z,99533.66
2023-02-16T18:20:45.427Z,99524.25
2023-02-16T18:23:12.438Z,99530.22
2023-02-16T18:25:41.235Z,99524.03
2023-02-16T18:28:07.808Z,99517.41
2023-02-16T18:30:34.445Z,99522.13
2023-02-16T18:33:01.117Z,99519.31
2023-02-16T18:35:27.730Z,99511.63
2023-02-16T18:37:54.337Z,99515.84
2023-02-16T18:40:21.137Z,99518.16
2023-02-16T18:42:49.369Z,99527.66
2023-02-16T18:45:16.655Z,99522.56
2023-02-16T18:47:45.044Z,99521.47
2023-02-16T18:50:14.014Z,99513.66
2023-02-16T18:52:43.198Z,99516.22
2023-02-16T18:55:11.385Z,99521.22
2023-02-16T18:57:38.487Z,99514.59
2023-02-16T19:00:07.177Z,99527.66
2023-02-16T19:02:33.756Z,99531.00
2023-02-16T19:05:00.653Z,99533.03
2023-02-16T19:07:27.829Z,99539.22
2023-02-16T19:09:56.718Z,99533.03
2023-02-16T19:12:23.500Z,99540.59
2023-02-16T19:14:50.104Z,99539.34
2023-02-16T19:17:16.709Z,99530.69
2023-02-16T19:19:43.680Z,99526.13
2023-02-16T19:22:10.453Z,99530.91
2023-02-16T19:24:37.040Z,99523.84
2023-02-16T19:27:06.447Z,99522.56
2023-02-16T19:29:33.052Z,99520.44
2023-02-16T19:31:59.748Z,99526.03
2023-02-16T19:34:26.340Z,99518.81
2023-02-16T19:36:55.448Z,99524.22
2023-02-16T19:39:22.298Z,99521.91
2023-02-16T19:41:48.861Z,99516.56
2023-02-16T19:44:15.495Z,99515.88
2023-02-16T19:46:42.289Z,99513.19
2023-02-16T19:49:13.786Z,99521.13
2023-02-16T19:51:42.931Z,99521.53
2023-02-16T19:54:09.572Z,99511.50
2023-02-16T19:56:40.283Z,99508.25
2023-02-16T19:59:08.351Z,99507.28
2023-02-16T20:01:35.372Z,99502.72
2023-02-16T20:04:02.989Z,99503.38
2023-02-16T20:06:33.501Z,99501.66
2023-02-16T20:09:05.628Z,99492.22
2023-02-16T20:11:32.376Z,99489.63
2023-02-16T20:13:59.761Z,99492.44
2023-02-16T20:16:27.041Z,99489.16
2023-02-16T20:18:54.647Z,99492.41
2023-02-16T20:21:24.461Z,99486.84
2023-02-16T20:23:56.321Z,99485.31
2023-02-16T20:26:34.285Z,99480.69
2023-02-16T20:29:02.086Z,99486.34
2023-02-16T20:31:40.255Z,99478.28
2023-02-16T20:34:08.453Z,99478.50
2023-02-16T20:36:37.044Z,99477.78
2023-02-16T20:39:06.769Z,99483.38
2023-02-16T20:41:33.589Z,99474.44
2023-02-16T20:44:00.208Z,99484.69
2023-02-16T20:46:27.028Z,99482.41
2023-02-16T20:48:53.880Z,99477.00
2023-02-16T20:51:21.486Z,99476.22
2023-02-16T20:53:48.250Z,99472.81
2023-02-16T20:56:21.391Z,99471.53
2023-02-16T20:58:50.276Z,99467.47
2023-02-16T21:01:46.429Z,99471.19
2023-02-16T21:04:16.262Z,99466.09
2023-02-16T21:06:44.502Z,99465.47
2023-02-16T21:09:11.738Z,99468.06
2023-02-16T21:11:38.784Z,99468.03
2023-02-16T21:14:07.676Z,99462.84
2023-02-16T21:16:36.952Z,99459.72
2023-02-16T21:19:11.756Z,99460.78
2023-02-16T21:21:43.912Z,99458.00
2023-02-16T21:24:10.555Z,99456.69
2023-02-16T21:26:37.140Z,99454.81
2023-02-16T21:29:03.975Z,99453.88
2023-02-16T21:31:30.646Z,99443.94
2023-02-16T21:33:57.334Z,99443.88
2023-02-16T21:36:26.713Z,99440.56
2023-02-16T21:38:53.841Z,99440.56
2023-02-16T21:41:28.990Z,99446.59
2023-02-16T21:44:08.575Z,99453.47
2023-02-16T21:46:47.038Z,99449.66
2023-02-16T21:49:19.592Z,99454.69
2023-02-16T21:51:47.824Z,99457.59
2023-02-16T21:54:38.562Z,99454.00
2023-02-16T21:57:05.166Z,99456.56
2023-02-16T21:59:31.725Z,99454.22
2023-02-16T22:01:58.855Z,99454.06
2023-02-16T22:04:25.487Z,99449.19
2023-02-16T22:06:52.098Z,99452.22
2023-02-16T22:09:23.314Z,99450.94
2023-02-16T22:11:50.950Z,99455.03
2023-02-16T22:14:19.628Z,99452.31
2023-02-16T22:16:47.594Z,99451.81
2023-02-16T22:19:16.964Z,99461.22
2023-02-16T22:21:53.540Z,99468.22
2023-02-16T22:24:20.214Z,99466.06
2023-02-16T22:26:49.106Z,99469.28
2023-02-16T22:29:16.637Z,99462.91
2023-02-16T22:31:48.209Z,99462.38
2023-02-16T22:34:19.020Z,99462.56
2023-02-16T22:36:45.947Z,99457.94
2023-02-16T22:39:14.891Z,99461.09
2023-02-16T22:41:42.046Z,99459.13
2023-02-16T22:44:10.417Z,99448.03
2023-02-16T22:46:37.073Z,99449.47
2023-02-16T22:49:03.771Z,99445.31
2023-02-16T22:51:30.991Z,99437.63
2023-02-16T22:53:59.922Z,99444.09
2023-02-16T22:56:27.110Z,99447.09
2023-02-16T22:58:57.336Z,99444.16
2023-02-16T23:01:25.526Z,99442.22
2023-02-16T23:03:57.160Z,99443.66
2023-02-16T23:06:31.049Z,99433.34
2023-02-16T23:09:01.885Z,99444.78
2023-02-16T23:11:29.506Z,99449.81
2023-02-16T23:13:56.442Z,99441.50
2023-02-16T23:16:25.552Z,99439.75
2023-02-16T23:18:54.869Z,99440.28
2023-02-16T23:21:26.474Z,99428.69
2023-02-16T23:23:54.080Z,99434.31
2023-02-16T23:26:23.947Z,99430.41
2023-02-16T23:28:53.346Z,99428.47
2023-02-16T23:31:20.498Z,99440.81
2023-02-16T23:33:47.686Z,99437.78
2023-02-16T23:36:14.425Z,99425.44
2023-02-16T23:38:41.209Z,99430.00
2023-02-16T23:41:11.870Z,99429.53
2023-02-16T23:43:39.013Z,99430.09
2023-02-16T23:46:06.841Z,99421.09
2023-02-16T23:48:33.811Z,99422.75
2023-02-16T23:51:00.422Z,99417.53
2023-02-16T23:53:28.296Z,99423.50
2023-02-16T23:56:00.415Z,99431.72
2023-02-16T23:58:32.701Z,99431.00
